Time;durP1;ratioP1;P1;durP2;ratioP2;P2;SDS_P1;SDS_P2;PMS_P1;PMS_P2;Temp;Humidity;BMP_temperature;BMP_pressure;BME280_temperature;BME280_humidity;BME280_pressure;Samples;Min_cycle;Max_cycle;Signal;HPM_P1;HPM_P2
2021/10/08 00:00:23;;;;;;;1.33;0.57;;;22.70;71.90;;;;;;5126044;28;20722;-36
2021/10/08 00:02:49;;;;;;;0.50;0.50;;;22.70;72.20;;;;;;5126524;28;20083;-36
2021/10/08 00:05:15;;;;;;;0.95;0.68;;;22.70;71.50;;;;;;5126143;28;20015;-36
2021/10/08 00:07:41;;;;;;;0.50;0.50;;;22.70;71.40;;;;;;5125854;28;20095;-36
2021/10/08 00:10:08;;;;;;;0.70;0.70;;;22.70;71.50;;;;;;5125974;28;20055;-37
2021/10/08 00:12:34;;;;;;;0.68;0.60;;;22.70;71.80;;;;;;5108048;28;20039;-36
2021/10/08 00:15:00;;;;;;;0.60;0.60;;;22.70;71.90;;;;;;5126183;28;20024;-36
2021/10/08 00:17:26;;;;;;;0.50;0.50;;;22.70;72.00;;;;;;5125255;28;20028;-36
2021/10/08 00:19:52;;;;;;;0.50;0.50;;;22.70;72.10;;;;;;5125658;28;20034;-36
2021/10/08 00:22:18;;;;;;;0.50;0.50;;;22.70;72.30;;;;;;5125669;28;20028;-37
2021/10/08 00:24:45;;;;;;;1.08;0.50;;;22.70;72.40;;;;;;5125223;28;20104;-36
2021/10/08 00:27:11;;;;;;;1.00;0.50;;;22.80;72.40;;;;;;5125829;28;20095;-36
2021/10/08 00:29:37;;;;;;;0.93;0.57;;;22.80;72.60;;;;;;5125437;28;20035;-36
2021/10/08 00:32:03;;;;;;;0.65;0.55;;;22.80;72.60;;;;;;5125736;28;20028;-36
2021/10/08 00:34:29;;;;;;;0.50;0.50;;;22.80;72.70;;;;;;5125592;28;20109;-36
2021/10/08 00:36:55;;;;;;;0.40;0.40;;;22.80;72.80;;;;;;5125262;28;20032;-36
2021/10/08 00:39:22;;;;;;;1.63;0.73;;;22.80;72.90;;;;;;5125561;28;20034;-36
2021/10/08 00:41:48;;;;;;;0.40;0.40;;;22.80;72.90;;;;;;5112416;28;20024;-36
2021/10/08 00:44:14;;;;;;;0.70;0.60;;;22.80;73.00;;;;;;5105628;28;20039;-37
2021/10/08 00:46:40;;;;;;;0.50;0.50;;;22.80;73.10;;;;;;5107102;28;20508;-36
2021/10/08 00:49:06;;;;;;;0.50;0.50;;;22.80;73.30;;;;;;5125554;28;20055;-36
2021/10/08 00:51:33;;;;;;;0.82;0.60;;;22.80;73.30;;;;;;5124654;28;20046;-37
2021/10/08 00:53:59;;;;;;;0.60;0.60;;;22.80;73.30;;;;;;5125015;28;20028;-37
2021/10/08 00:56:25;;;;;;;1.50;0.65;;;22.80;73.30;;;;;;5125078;28;20035;-36
2021/10/08 00:58:51;;;;;;;1.05;0.50;;;22.80;73.20;;;;;;5106346;28;20023;-36
2021/10/08 01:01:17;;;;;;;1.40;0.60;;;22.80;73.40;;;;;;5125263;28;20034;-36
2021/10/08 01:03:44;;;;;;;0.47;0.47;;;22.80;73.30;;;;;;5125129;28;20267;-36
2021/10/08 01:06:10;;;;;;;0.63;0.57;;;22.80;73.40;;;;;;5125000;28;20023;-36
2021/10/08 01:08:36;;;;;;;1.25;0.60;;;22.80;73.40;;;;;;5125102;28;20027;-37
2021/10/08 01:11:03;;;;;;;1.05;0.55;;;22.80;73.50;;;;;;5124677;28;20065;-36
2021/10/08 01:13:29;;;;;;;0.50;0.50;;;22.80;73.60;;;;;;5125122;28;20095;-36
2021/10/08 01:15:55;;;;;;;0.57;0.57;;;22.80;73.60;;;;;;5124648;28;20024;-36
2021/10/08 01:18:25;;;;;;;0.65;0.65;;;22.80;73.70;;;;;;5124901;28;20027;-36
2021/10/08 01:20:51;;;;;;;0.70;0.52;;;22.80;74.40;;;;;;5124548;28;20038;-36
2021/10/08 01:23:17;;;;;;;0.60;0.60;;;22.90;73.90;;;;;;5124828;28;20054;-36
2021/10/08 01:25:43;;;;;;;0.60;0.60;;;22.80;73.80;;;;;;5124438;28;20036;-36
2021/10/08 01:28:09;;;;;;;1.20;0.52;;;22.90;73.90;;;;;;5123710;28;20044;-36
2021/10/08 01:30:36;;;;;;;0.90;0.70;;;22.90;74.00;;;;;;5124157;28;20408;-36
2021/10/08 01:33:04;;;;;;;0.60;0.50;;;22.90;74.40;;;;;;5124571;28;20031;-36
2021/10/08 01:35:30;;;;;;;0.60;0.50;;;22.90;74.10;;;;;;5124410;28;20110;-37
2021/10/08 01:37:56;;;;;;;0.70;0.70;;;22.90;74.10;;;;;;5124545;28;20030;-37
2021/10/08 01:40:23;;;;;;;1.23;0.60;;;22.90;74.10;;;;;;5122999;28;20031;-36
2021/10/08 01:42:49;;;;;;;0.98;0.50;;;22.90;74.10;;;;;;5124412;28;20095;-36
2021/10/08 01:45:15;;;;;;;0.50;0.50;;;22.90;74.10;;;;;;5124173;28;20070;-36
2021/10/08 01:47:42;;;;;;;0.73;0.60;;;22.90;74.20;;;;;;5124434;28;20055;-36
2021/10/08 01:50:18;;;;;;;0.80;0.50;;;22.90;74.20;;;;;;5120720;27;20397;-36
2021/10/08 01:52:44;;;;;;;0.70;0.52;;;22.90;74.20;;;;;;5120956;28;20032;-35
2021/10/08 01:55:10;;;;;;;0.60;0.60;;;22.90;74.20;;;;;;5120734;28;20036;-35
2021/10/08 01:57:37;;;;;;;0.65;0.60;;;22.90;74.20;;;;;;5120914;28;20024;-35
2021/10/08 02:00:04;;;;;;;0.70;0.70;;;22.90;74.30;;;;;;5120746;28;20016;-35
2021/10/08 02:02:30;;;;;;;0.63;0.55;;;22.90;74.30;;;;;;5118990;28;20119;-36
2021/10/08 02:04:56;;;;;;;0.90;0.60;;;22.90;74.40;;;;;;5120623;28;20024;-35
2021/10/08 02:07:23;;;;;;;1.30;0.70;;;22.90;74.50;;;;;;5120606;28;20032;-35
2021/10/08 02:09:49;;;;;;;1.48;0.68;;;22.90;74.50;;;;;;5120405;28;20036;-35
2021/10/08 02:12:15;;;;;;;0.68;0.68;;;22.90;74.40;;;;;;5120327;28;20019;-35
2021/10/08 02:14:41;;;;;;;1.15;0.60;;;22.90;74.50;;;;;;5120371;28;20028;-36
2021/10/08 02:17:07;;;;;;;0.80;0.70;;;22.90;74.50;;;;;;5120574;28;20453;-35
2021/10/08 02:19:33;;;;;;;0.50;0.50;;;22.90;74.50;;;;;;5120481;28;20058;-35
2021/10/08 02:22:01;;;;;;;1.08;0.65;;;22.90;74.50;;;;;;5107926;28;20054;-35
2021/10/08 02:24:28;;;;;;;1.48;0.80;;;22.90;74.60;;;;;;5107074;28;20054;-35
2021/10/08 02:26:54;;;;;;;0.40;0.40;;;22.90;74.60;;;;;;5120208;28;20028;-35
2021/10/08 02:29:20;;;;;;;0.60;0.60;;;23.00;74.70;;;;;;5120191;28;20124;-35
2021/10/08 02:31:46;;;;;;;0.90;0.57;;;22.90;74.60;;;;;;5119771;28;20024;-35
2021/10/08 02:34:12;;;;;;;0.50;0.50;;;23.00;74.80;;;;;;5120022;28;20028;-35
2021/10/08 02:36:38;;;;;;;0.60;0.60;;;22.90;74.80;;;;;;5120188;28;20115;-35
2021/10/08 02:39:04;;;;;;;0.50;0.50;;;23.00;74.80;;;;;;5119616;28;20035;-35
2021/10/08 02:41:31;;;;;;;1.15;0.60;;;23.00;74.80;;;;;;5119812;28;20534;-35
2021/10/08 02:43:57;;;;;;;0.68;0.60;;;23.00;74.70;;;;;;5119965;28;20028;-36
2021/10/08 02:46:23;;;;;;;1.00;0.50;;;23.00;74.70;;;;;;5119778;28;20061;-35
2021/10/08 02:48:49;;;;;;;0.57;0.50;;;23.00;74.80;;;;;;5119533;28;20086;-35
2021/10/08 02:51:15;;;;;;;0.50;0.50;;;23.00;74.80;;;;;;5119325;28;20059;-36
2021/10/08 02:53:42;;;;;;;1.05;0.63;;;23.00;74.80;;;;;;5119407;28;20024;-35
2021/10/08 02:56:08;;;;;;;0.70;0.60;;;23.00;74.80;;;;;;5119649;28;20020;-35
2021/10/08 02:58:35;;;;;;;0.50;0.50;;;23.00;74.90;;;;;;5119474;28;20481;-35
2021/10/08 03:01:02;;;;;;;0.88;0.40;;;22.90;74.80;;;;;;5104612;28;20111;-35
2021/10/08 03:03:28;;;;;;;1.30;0.50;;;23.00;74.90;;;;;;5105865;28;20493;-35
2021/10/08 03:05:54;;;;;;;0.55;0.55;;;23.00;74.90;;;;;;5105922;28;20024;-35
2021/10/08 03:08:20;;;;;;;0.77;0.73;;;23.00;75.00;;;;;;5105681;28;20058;-35
2021/10/08 03:10:47;;;;;;;0.70;0.70;;;23.00;75.00;;;;;;5105791;28;20040;-35
2021/10/08 03:13:13;;;;;;;0.50;0.50;;;23.00;75.00;;;;;;5105703;28;20032;-35
2021/10/08 03:15:39;;;;;;;0.60;0.60;;;23.00;75.00;;;;;;5105322;28;20020;-35
2021/10/08 03:18:05;;;;;;;0.50;0.50;;;23.00;75.00;;;;;;5105729;28;20043;-35
2021/10/08 03:20:32;;;;;;;0.60;0.60;;;23.00;75.00;;;;;;5105521;28;20020;-35
2021/10/08 03:22:58;;;;;;;0.90;0.50;;;23.00;75.00;;;;;;5085220;28;20039;-35
2021/10/08 03:25:24;;;;;;;0.43;0.43;;;23.00;75.00;;;;;;5100212;28;20472;-35
2021/10/08 03:27:50;;;;;;;0.65;0.40;;;23.00;75.00;;;;;;5105444;28;20049;-36
2021/10/08 03:30:17;;;;;;;0.82;0.63;;;23.00;75.10;;;;;;5103974;28;20128;-35
2021/10/08 03:32:43;;;;;;;0.70;0.60;;;23.00;75.00;;;;;;5105370;28;20119;-35
2021/10/08 03:35:10;;;;;;;0.38;0.38;;;23.00;75.10;;;;;;5105182;28;20028;-35
2021/10/08 03:38:22;;;;;;;0.60;0.60;;;23.00;75.10;;;;;;5105296;28;20074;-35
2021/10/08 03:40:28;;;;;;;0.90;0.68;;;23.00;75.10;;;;;;5104488;28;20032;-35
2021/10/08 03:42:57;;;;;;;0.50;0.50;;;23.00;75.10;;;;;;5105171;28;20028;-35
2021/10/08 03:45:30;;;;;;;0.93;0.60;;;23.00;75.10;;;;;;5104893;28;20027;-35
2021/10/08 03:48:20;;;;;;;0.50;0.50;;;23.00;75.20;;;;;;5104953;28;20035;-36
2021/10/08 03:50:47;;;;;;;0.50;0.50;;;23.00;75.20;;;;;;5104998;28;20079;-35
2021/10/08 03:53:13;;;;;;;0.43;0.43;;;23.00;75.30;;;;;;5104848;28;20556;-35
2021/10/08 03:55:40;;;;;;;0.73;0.60;;;23.00;75.30;;;;;;5104582;28;20032;-36
2021/10/08 03:58:06;;;;;;;0.40;0.40;;;23.00;75.30;;;;;;5104825;28;20043;-36
2021/10/08 04:00:32;;;;;;;1.05;0.60;;;23.00;75.30;;;;;;5104602;28;20028;-36
2021/10/08 04:02:58;;;;;;;0.50;0.50;;;23.00;75.30;;;;;;5104679;28;20027;-36
2021/10/08 04:05:24;;;;;;;0.82;0.70;;;23.00;75.30;;;;;;5104372;28;20059;-36
2021/10/08 04:07:50;;;;;;;0.70;0.50;;;23.00;75.30;;;;;;5104662;28;20031;-36
2021/10/08 04:10:16;;;;;;;0.60;0.60;;;23.00;75.20;;;;;;5104540;28;20055;-36
2021/10/08 04:12:42;;;;;;;1.77;0.35;;;23.00;75.30;;;;;;5103578;28;20135;-36
2021/10/08 04:15:09;;;;;;;0.50;0.50;;;23.00;75.20;;;;;;5104129;28;20053;-36
2021/10/08 04:17:35;;;;;;;0.77;0.50;;;23.00;75.30;;;;;;5104427;28;20039;-36
2021/10/08 04:20:01;;;;;;;0.50;0.40;;;23.00;75.30;;;;;;5104279;28;20032;-36
2021/10/08 04:22:27;;;;;;;0.93;0.60;;;23.00;75.30;;;;;;5088348;28;20036;-36
2021/10/08 04:24:53;;;;;;;0.82;0.50;;;23.00;75.30;;;;;;5094787;28;20069;-36
2021/10/08 04:27:19;;;;;;;0.70;0.40;;;23.00;75.30;;;;;;5104334;28;20020;-36
2021/10/08 04:29:46;;;;;;;0.50;0.50;;;23.00;75.40;;;;;;5104109;28;20039;-36
2021/10/08 04:32:12;;;;;;;0.60;0.60;;;23.00;75.50;;;;;;5104006;28;20020;-36
2021/10/08 04:34:38;;;;;;;0.70;0.45;;;23.00;75.40;;;;;;5104185;28;20085;-36
2021/10/08 04:37:04;;;;;;;0.60;0.50;;;23.00;75.40;;;;;;5103812;28;20092;-37
2021/10/08 04:39:30;;;;;;;0.57;0.57;;;23.00;75.50;;;;;;5103772;28;20030;-36
2021/10/08 04:41:56;;;;;;;0.50;0.50;;;23.00;75.40;;;;;;5103909;28;20024;-36
2021/10/08 04:44:22;;;;;;;0.73;0.50;;;23.00;75.40;;;;;;5103772;28;20024;-37
2021/10/08 04:46:49;;;;;;;0.60;0.40;;;23.00;75.30;;;;;;5103375;28;20035;-36
2021/10/08 04:49:15;;;;;;;0.60;0.50;;;23.00;75.40;;;;;;5101379;28;20082;-37
2021/10/08 04:51:43;;;;;;;0.50;0.50;;;23.00;75.30;;;;;;5103696;28;20046;-36
2021/10/08 04:54:09;;;;;;;0.50;0.50;;;23.00;75.30;;;;;;5102076;28;20028;-36
2021/10/08 04:56:36;;;;;;;0.55;0.40;;;23.00;75.40;;;;;;5103323;28;20020;-36
2021/10/08 04:59:02;;;;;;;0.45;0.40;;;23.00;75.50;;;;;;5103695;28;20066;-36
2021/10/08 05:01:28;;;;;;;0.60;0.60;;;23.00;75.50;;;;;;5103201;28;20027;-37
2021/10/08 05:03:55;;;;;;;0.60;0.60;;;23.00;75.60;;;;;;5102433;28;20753;-36
2021/10/08 05:06:21;;;;;;;1.42;0.73;;;23.00;75.60;;;;;;5103308;28;20263;-36
2021/10/08 05:08:48;;;;;;;1.30;0.60;;;22.90;75.60;;;;;;5103332;28;20466;-36
2021/10/08 05:11:14;;;;;;;1.00;0.60;;;23.00;75.70;;;;;;5090616;28;20085;-36
2021/10/08 05:13:40;;;;;;;0.50;0.50;;;22.90;75.60;;;;;;5083239;28;20044;-36
2021/10/08 05:16:06;;;;;;;0.40;0.40;;;22.90;75.70;;;;;;5081500;28;20051;-36
2021/10/08 05:18:33;;;;;;;1.38;0.60;;;22.90;75.60;;;;;;5083166;28;20546;-36
2021/10/08 05:20:59;;;;;;;0.82;0.50;;;22.90;75.60;;;;;;5086488;28;20038;-36
2021/10/08 05:23:25;;;;;;;0.52;0.52;;;22.90;75.50;;;;;;5102960;28;20035;-36
2021/10/08 05:25:51;;;;;;;0.45;0.45;;;22.90;75.50;;;;;;5102780;28;20032;-36
2021/10/08 05:28:17;;;;;;;0.73;0.47;;;22.90;75.60;;;;;;5103070;28;20032;-36
2021/10/08 05:30:43;;;;;;;0.53;0.50;;;22.90;75.50;;;;;;5103055;28;20036;-36
2021/10/08 05:33:10;;;;;;;1.92;0.50;;;22.90;75.50;;;;;;5103053;28;20020;-36
2021/10/08 05:35:36;;;;;;;0.65;0.65;;;22.90;75.50;;;;;;5102946;28;20096;-36
2021/10/08 05:38:02;;;;;;;0.40;0.40;;;22.90;75.60;;;;;;5102991;28;20032;-36
2021/10/08 05:40:28;;;;;;;1.63;0.50;;;22.90;75.70;;;;;;5102900;28;20051;-36
2021/10/08 05:42:54;;;;;;;0.50;0.50;;;22.90;75.70;;;;;;5103056;28;20035;-36
2021/10/08 05:45:20;;;;;;;0.65;0.52;;;22.90;75.70;;;;;;5102776;28;20021;-36
2021/10/08 05:47:46;;;;;;;0.50;0.50;;;22.90;75.80;;;;;;5102843;28;20020;-36
2021/10/08 05:50:13;;;;;;;0.80;0.55;;;22.90;75.80;;;;;;5102620;28;20113;-36
2021/10/08 05:52:39;;;;;;;0.50;0.50;;;22.90;75.80;;;;;;5085340;28;20035;-36
2021/10/08 05:55:05;;;;;;;0.50;0.50;;;22.90;75.80;;;;;;5094830;28;20031;-36
2021/10/08 05:57:31;;;;;;;1.13;0.40;;;22.90;75.70;;;;;;5102742;28;20080;-36
2021/10/08 05:59:57;;;;;;;0.80;0.50;;;22.90;75.70;;;;;;5102509;28;20095;-36
2021/10/08 06:02:24;;;;;;;0.38;0.38;;;22.90;75.60;;;;;;5083435;28;20039;-36
2021/10/08 06:04:51;;;;;;;0.43;0.43;;;22.90;75.60;;;;;;5082629;28;20058;-36
2021/10/08 06:07:17;;;;;;;0.80;0.73;;;22.90;75.70;;;;;;5082199;28;20032;-36
2021/10/08 06:09:45;;;;;;;0.57;0.40;;;22.90;75.70;;;;;;5082434;28;20040;-36
2021/10/08 06:12:13;;;;;;;0.50;0.40;;;22.90;75.70;;;;;;5082467;28;20088;-36
2021/10/08 06:14:39;;;;;;;;;;;22.90;75.60;;;;;;5081289;28;20059;-36
2021/10/08 06:17:05;;;;;;;0.98;0.50;;;22.90;75.70;;;;;;5082134;28;19916;-36
2021/10/08 06:19:31;;;;;;;1.67;0.50;;;22.90;75.80;;;;;;5082206;28;20036;-36
2021/10/08 06:21:57;;;;;;;0.40;0.40;;;22.90;75.80;;;;;;5094086;28;20082;-36
2021/10/08 06:24:24;;;;;;;0.70;0.50;;;22.90;75.80;;;;;;5102166;28;20052;-36
2021/10/08 06:26:50;;;;;;;0.60;0.50;;;22.90;75.90;;;;;;5102501;28;20054;-36
2021/10/08 06:29:16;;;;;;;0.50;0.50;;;22.90;75.90;;;;;;5102479;28;20039;-36
2021/10/08 06:31:42;;;;;;;0.40;0.40;;;22.90;76.00;;;;;;5102311;28;20031;-36
2021/10/08 06:34:08;;;;;;;0.55;0.55;;;22.90;76.10;;;;;;5102527;28;20471;-36
2021/10/08 06:36:34;;;;;;;0.73;0.50;;;22.90;75.90;;;;;;5105107;28;20028;-36
2021/10/08 06:39:00;;;;;;;0.90;0.50;;;22.90;75.90;;;;;;5106259;28;20028;-36
2021/10/08 06:41:27;;;;;;;1.05;0.40;;;22.90;75.80;;;;;;5106375;28;20035;-36
2021/10/08 06:43:53;;;;;;;0.38;0.38;;;22.90;75.80;;;;;;5106013;28;20029;-36
2021/10/08 06:46:21;;;;;;;0.50;0.50;;;22.90;75.80;;;;;;5105886;28;20024;-36
2021/10/08 06:48:47;;;;;;;0.50;0.40;;;22.90;75.80;;;;;;5105567;28;20056;-36
2021/10/08 06:51:13;;;;;;;0.57;0.50;;;22.90;75.80;;;;;;5100514;28;20028;-36
2021/10/08 06:53:40;;;;;;;0.50;0.43;;;22.90;75.70;;;;;;5099759;28;20020;-36
2021/10/08 06:56:07;;;;;;;1.40;0.60;;;22.90;75.70;;;;;;5105921;28;20081;-36
2021/10/08 06:58:33;;;;;;;0.80;0.43;;;22.90;75.80;;;;;;5105435;28;20028;-36
2021/10/08 07:00:59;;;;;;;0.40;0.40;;;22.90;75.90;;;;;;5105621;28;20028;-36
2021/10/08 07:03:26;;;;;;;0.50;0.50;;;22.80;75.90;;;;;;5105839;28;20040;-36
2021/10/08 07:05:52;;;;;;;0.43;0.43;;;22.90;76.00;;;;;;5105786;28;20027;-37
2021/10/08 07:08:18;;;;;;;0.77;0.40;;;22.80;75.90;;;;;;5105362;28;20032;-36
2021/10/08 07:10:44;;;;;;;0.52;0.40;;;22.80;76.00;;;;;;5105754;28;20020;-36
2021/10/08 07:13:10;;;;;;;0.70;0.60;;;22.80;76.00;;;;;;5105593;28;20087;-36
2021/10/08 07:15:37;;;;;;;0.50;0.50;;;22.80;75.90;;;;;;5101925;28;20032;-36
2021/10/08 07:18:03;;;;;;;1.30;0.38;;;22.80;76.00;;;;;;5105354;28;20103;-36
2021/10/08 07:20:29;;;;;;;0.50;0.43;;;22.80;75.90;;;;;;5105151;28;20028;-36
2021/10/08 07:22:56;;;;;;;0.63;0.57;;;22.80;75.90;;;;;;5085540;28;20021;-36
2021/10/08 07:25:23;;;;;;;0.30;0.30;;;22.80;75.90;;;;;;5098718;28;20060;-36
2021/10/08 07:27:50;;;;;;;0.30;0.30;;;22.80;75.90;;;;;;5105018;28;20032;-36
2021/10/08 07:30:16;;;;;;;0.40;0.40;;;22.80;75.90;;;;;;5104836;28;20036;-36
2021/10/08 07:32:42;;;;;;;0.32;0.32;;;22.80;75.90;;;;;;5104007;28;20016;-36
2021/10/08 07:35:09;;;;;;;1.13;0.50;;;22.80;75.90;;;;;;5105054;28;20036;-36
2021/10/08 07:37:35;;;;;;;0.70;0.40;;;22.80;75.80;;;;;;5104938;28;20016;-36
2021/10/08 07:40:02;;;;;;;0.35;0.35;;;22.80;75.80;;;;;;5105069;28;20024;-36
2021/10/08 07:42:29;;;;;;;0.32;0.32;;;22.80;76.00;;;;;;5104995;28;20030;-36
2021/10/08 07:44:55;;;;;;;0.73;0.40;;;22.80;76.00;;;;;;5104913;28;20083;-36
2021/10/08 07:47:21;;;;;;;0.40;0.40;;;22.80;76.00;;;;;;5104496;28;20024;-36
2021/10/08 07:49:47;;;;;;;0.47;0.47;;;22.80;76.00;;;;;;5104421;28;20120;-38
2021/10/08 07:52:13;;;;;;;0.47;0.40;;;22.80;76.00;;;;;;5090878;28;20074;-36
2021/10/08 07:54:40;;;;;;;0.87;0.50;;;22.80;76.00;;;;;;5084501;28;20032;-36
2021/10/08 07:57:06;;;;;;;0.70;0.30;;;22.80;76.10;;;;;;5084397;28;20281;-36
2021/10/08 07:59:32;;;;;;;0.40;0.40;;;22.80;76.00;;;;;;5084291;28;20036;-36
2021/10/08 08:01:58;;;;;;;0.70;0.52;;;22.80;76.00;;;;;;5101087;28;20028;-36
2021/10/08 08:04:24;;;;;;;0.95;0.55;;;22.80;76.10;;;;;;5104452;28;20031;-36
2021/10/08 08:06:51;;;;;;;0.47;0.43;;;22.80;76.10;;;;;;5104545;28;20031;-36
2021/10/08 08:09:17;;;;;;;0.68;0.45;;;22.80;76.10;;;;;;5104330;28;20032;-36
2021/10/08 08:11:43;;;;;;;0.47;0.47;;;22.80;76.10;;;;;;5104382;28;20027;-36
2021/10/08 08:14:09;;;;;;;1.07;0.60;;;22.80;76.10;;;;;;5104354;28;20028;-36
2021/10/08 08:16:35;;;;;;;0.47;0.45;;;22.80;76.10;;;;;;5104392;28;20062;-36
2021/10/08 08:19:02;;;;;;;0.43;0.32;;;22.80;76.10;;;;;;5103946;28;20058;-36
2021/10/08 08:21:28;;;;;;;0.90;0.50;;;22.80;76.10;;;;;;5096833;28;20051;-36
2021/10/08 08:23:54;;;;;;;0.43;0.43;;;22.80;76.20;;;;;;5083872;28;20120;-36
2021/10/08 08:26:20;;;;;;;0.50;0.40;;;22.70;76.00;;;;;;5083725;28;20024;-36
2021/10/08 08:28:46;;;;;;;0.40;0.40;;;22.80;76.10;;;;;;5083665;28;20044;-36
2021/10/08 08:31:13;;;;;;;0.55;0.35;;;22.70;76.10;;;;;;5094093;28;20035;-36
2021/10/08 08:33:39;;;;;;;0.30;0.30;;;22.70;76.00;;;;;;5103902;28;20036;-36
2021/10/08 08:36:05;;;;;;;0.47;0.40;;;22.70;76.10;;;;;;5104017;28;20028;-36
2021/10/08 08:38:31;;;;;;;0.47;0.40;;;22.70;76.10;;;;;;5103783;28;20032;-36
2021/10/08 08:41:00;;;;;;;1.02;0.40;;;22.70;76.10;;;;;;5103770;28;20032;-36
2021/10/08 08:43:28;;;;;;;1.65;0.50;;;22.70;76.10;;;;;;5103899;28;20024;-36
2021/10/08 08:45:57;;;;;;;0.50;0.30;;;22.70;76.10;;;;;;5103605;28;20095;-36
2021/10/08 08:48:25;;;;;;;0.88;0.40;;;22.70;76.10;;;;;;5101837;28;20055;-36
2021/10/08 08:50:51;;;;;;;0.60;0.32;;;22.70;76.20;;;;;;5103638;28;20031;-36
2021/10/08 08:53:21;;;;;;;1.20;0.30;;;22.70;76.10;;;;;;5103710;28;20103;-36
2021/10/08 08:55:50;;;;;;;1.00;0.30;;;22.70;76.10;;;;;;5103468;28;20069;-36
2021/10/08 08:58:19;;;;;;;0.68;0.35;;;22.70;76.20;;;;;;5102690;28;20028;-36
2021/10/08 09:00:55;;;;;;;0.30;0.30;;;22.70;76.20;;;;;;5103195;28;20552;-36
2021/10/08 09:03:21;;;;;;;0.30;0.30;;;22.70;76.10;;;;;;5103391;28;20036;-36
2021/10/08 09:05:48;;;;;;;0.32;0.32;;;22.70;76.10;;;;;;5101790;28;20040;-36
2021/10/08 09:08:14;;;;;;;0.40;0.40;;;22.70;76.30;;;;;;5103445;28;20028;-36
2021/10/08 09:10:42;;;;;;;1.10;0.50;;;22.70;76.10;;;;;;5102424;28;20055;-36
2021/10/08 09:13:09;;;;;;;0.30;0.30;;;22.70;76.10;;;;;;5103530;28;20020;-36
2021/10/08 09:15:52;;;;;;;1.00;0.30;;;22.70;76.10;;;;;;5103219;28;20036;-36
2021/10/08 09:18:19;;;;;;;0.30;0.30;;;22.70;76.10;;;;;;5103117;28;20051;-36
2021/10/08 09:21:07;;;;;;;1.05;0.40;;;22.70;76.10;;;;;;5099183;28;20024;-36
2021/10/08 09:23:47;;;;;;;0.40;0.32;;;22.70;76.20;;;;;;5103184;28;20035;-36
2021/10/08 09:26:20;;;;;;;1.40;0.30;;;22.70;76.20;;;;;;5102802;28;20055;-36
2021/10/08 09:29:02;;;;;;;0.25;0.20;;;22.70;76.20;;;;;;5102912;28;20089;-36
2021/10/08 09:31:38;;;;;;;0.40;0.38;;;22.70;76.20;;;;;;5101661;28;20031;-36
2021/10/08 09:34:14;;;;;;;0.75;0.40;;;22.70;76.20;;;;;;5103071;28;20024;-35
2021/10/08 09:36:43;;;;;;;0.50;0.40;;;22.70;76.20;;;;;;5103009;28;20028;-36
2021/10/08 09:39:26;;;;;;;0.55;0.30;;;22.70;76.20;;;;;;5102809;28;20074;-36
2021/10/08 09:42:08;;;;;;;0.40;0.40;;;22.70;76.90;;;;;;5102839;28;20063;-36
2021/10/08 09:44:37;;;;;;;1.33;0.40;;;22.70;76.20;;;;;;5102634;28;20052;-36
2021/10/08 09:47:19;;;;;;;0.43;0.30;;;22.70;76.20;;;;;;5102878;28;20030;-36
2021/10/08 09:49:48;;;;;;;0.20;0.20;;;22.60;76.10;;;;;;5102270;28;20120;-36
2021/10/08 09:52:25;;;;;;;0.40;0.40;;;22.60;76.20;;;;;;5102810;28;20024;-35
2021/10/08 09:54:59;;;;;;;1.02;0.35;;;22.60;76.20;;;;;;5102581;28;20036;-36
2021/10/08 09:57:25;;;;;;;0.30;0.30;;;22.60;76.20;;;;;;5102710;28;20049;-36
2021/10/08 09:59:52;;;;;;;0.45;0.30;;;22.60;76.20;;;;;;5102399;28;20028;-36
2021/10/08 10:02:18;;;;;;;1.38;0.40;;;22.60;76.30;;;;;;5102841;28;20016;-36
2021/10/08 10:04:59;;;;;;;2.30;0.30;;;22.60;76.20;;;;;;5102757;28;20081;-36
2021/10/08 10:07:26;;;;;;;0.20;0.20;;;22.60;76.20;;;;;;5102753;28;20074;-36
2021/10/08 10:09:52;;;;;;;0.30;0.30;;;22.60;76.20;;;;;;5102353;28;20046;-36
2021/10/08 10:12:19;;;;;;;0.50;0.30;;;22.60;76.20;;;;;;5106535;28;20039;-36
2021/10/08 10:14:49;;;;;;;0.20;0.20;;;22.60;76.20;;;;;;5106734;28;20048;-36
2021/10/08 10:17:16;;;;;;;0.35;0.35;;;22.60;76.30;;;;;;5106675;28;20031;-36
2021/10/08 10:19:45;;;;;;;0.28;0.28;;;22.60;76.20;;;;;;5106457;28;20102;-36
2021/10/08 10:22:16;;;;;;;0.40;0.40;;;22.60;76.30;;;;;;5106504;28;20047;-36
2021/10/08 10:24:43;;;;;;;0.43;0.30;;;22.60;76.20;;;;;;5106343;28;20042;-36
2021/10/08 10:27:11;;;;;;;0.40;0.40;;;22.60;76.30;;;;;;5106465;28;20024;-36
2021/10/08 10:29:38;;;;;;;0.63;0.30;;;22.60;76.20;;;;;;5106082;28;20036;-36
2021/10/08 10:32:07;;;;;;;0.22;0.22;;;22.60;76.30;;;;;;5105033;28;20044;-36
2021/10/08 10:34:37;;;;;;;0.50;0.28;;;22.60;76.40;;;;;;5106367;28;20024;-36
2021/10/08 10:37:04;;;;;;;0.30;0.30;;;22.60;76.30;;;;;;5106157;28;20039;-36
2021/10/08 10:39:30;;;;;;;0.38;0.30;;;22.60;76.40;;;;;;5106110;28;20028;-36
2021/10/08 10:42:03;;;;;;;0.40;0.30;;;22.60;76.30;;;;;;5105779;28;20432;-36
2021/10/08 10:44:40;;;;;;;0.85;0.40;;;22.60;76.30;;;;;;5106228;28;20400;-36
2021/10/08 10:47:20;;;;;;;0.50;0.20;;;22.60;76.30;;;;;;5106033;28;20807;-36
2021/10/08 10:49:52;;;;;;;0.65;0.20;;;22.60;76.30;;;;;;5105740;28;20455;-36
2021/10/08 10:52:21;;;;;;;0.47;0.30;;;22.60;76.40;;;;;;5105802;28;20088;-36
2021/10/08 10:54:53;;;;;;;0.30;0.30;;;22.60;76.40;;;;;;5105844;28;20065;-36
2021/10/08 10:57:20;;;;;;;1.50;0.50;;;22.60;76.30;;;;;;5105739;28;20055;-36
2021/10/08 10:59:47;;;;;;;0.63;0.30;;;22.60;76.30;;;;;;5105945;28;20028;-36
2021/10/08 11:02:16;;;;;;;0.60;0.30;;;22.60;76.30;;;;;;5105843;28;20036;-36
2021/10/08 11:04:46;;;;;;;0.30;0.30;;;22.60;76.40;;;;;;5105348;28;20020;-36
2021/10/08 11:07:16;;;;;;;0.20;0.20;;;22.60;76.40;;;;;;5105808;28;20084;-36
2021/10/08 11:09:59;;;;;;;0.70;0.30;;;22.60;76.40;;;;;;5105150;28;20035;-36
2021/10/08 11:12:44;;;;;;;0.40;0.30;;;22.50;76.40;;;;;;5105372;28;20035;-36
2021/10/08 11:15:16;;;;;;;0.32;0.32;;;22.60;76.40;;;;;;5105531;28;20063;-36
2021/10/08 11:17:53;;;;;;;0.85;0.30;;;22.60;76.40;;;;;;5105745;28;20027;-36
2021/10/08 11:20:31;;;;;;;2.50;0.30;;;22.50;76.30;;;;;;5104724;28;20016;-36
2021/10/08 11:23:17;;;;;;;0.40;0.30;;;22.50;76.30;;;;;;5102002;28;20666;-36
2021/10/08 11:25:48;;;;;;;0.55;0.20;;;22.50;76.30;;;;;;5104972;28;20039;-36
2021/10/08 11:28:17;;;;;;;0.45;0.30;;;22.50;76.40;;;;;;5105151;28;20024;-36
2021/10/08 11:30:48;;;;;;;0.40;0.30;;;22.50;76.30;;;;;;5105217;28;20024;-36
2021/10/08 11:33:14;;;;;;;0.40;0.30;;;22.50;76.40;;;;;;5103954;28;20031;-36
2021/10/08 11:35:40;;;;;;;0.20;0.20;;;22.50;76.40;;;;;;5105070;28;20048;-36
2021/10/08 11:38:06;;;;;;;0.20;0.20;;;22.50;76.40;;;;;;5105159;28;20051;-36
2021/10/08 11:40:43;;;;;;;0.30;0.28;;;22.50;76.40;;;;;;5103153;28;20027;-36
2021/10/08 11:43:27;;;;;;;0.43;0.20;;;22.50;76.40;;;;;;5105074;28;20061;-36
2021/10/08 11:46:11;;;;;;;0.17;0.17;;;22.50;76.40;;;;;;5104932;28;20043;-36
2021/10/08 11:51:33;;;;;;;0.57;0.30;;;22.50;76.40;;;;;;5101785;28;20447;-36
2021/10/08 11:53:59;;;;;;;1.95;0.40;;;22.50;76.40;;;;;;5102080;28;20028;-36
2021/10/08 11:56:27;;;;;;;1.63;0.20;;;22.50;76.40;;;;;;5101840;28;20047;-36
2021/10/08 11:58:58;;;;;;;0.30;0.30;;;22.50;76.40;;;;;;5102012;28;20528;-36
2021/10/08 12:01:26;;;;;;;0.30;0.30;;;22.50;76.40;;;;;;5101589;28;20032;-36
2021/10/08 12:03:52;;;;;;;;;;;22.50;76.50;;;;;;5102417;28;20050;-36
2021/10/08 12:06:25;;;;;;;0.68;0.30;;;22.50;76.50;;;;;;5101842;28;19907;-36
2021/10/08 12:08:52;;;;;;;1.48;0.50;;;22.50;76.50;;;;;;5085268;28;20571;-36
2021/10/08 12:11:19;;;;;;;0.30;0.30;;;22.50;76.50;;;;;;5100938;28;20091;-36
2021/10/08 12:13:57;;;;;;;0.30;0.20;;;22.50;76.40;;;;;;5101729;28;20028;-36
2021/10/08 12:16:36;;;;;;;0.38;0.38;;;22.50;77.20;;;;;;5101756;28;20623;-36
2021/10/08 12:19:02;;;;;;;0.40;0.30;;;22.50;76.50;;;;;;5101612;28;20044;-36
2021/10/08 12:21:36;;;;;;;0.55;0.30;;;22.50;76.50;;;;;;5101457;28;20032;-35
2021/10/08 12:24:07;;;;;;;0.40;0.30;;;22.50;76.50;;;;;;5101503;28;20020;-36
2021/10/08 12:26:34;;;;;;;0.45;0.30;;;22.50;76.50;;;;;;5101311;28;20119;-36
2021/10/08 12:29:06;;;;;;;0.40;0.32;;;22.50;76.50;;;;;;5103810;28;20200;-36
2021/10/08 12:31:57;;;;;;;0.25;0.25;;;22.50;76.50;;;;;;5103974;28;20073;-36
2021/10/08 12:34:52;;;;;;;0.68;0.40;;;22.50;76.50;;;;;;5103278;28;20035;-36
2021/10/08 12:37:23;;;;;;;0.20;0.20;;;22.40;76.40;;;;;;5104030;28;20024;-36
2021/10/08 12:40:12;;;;;;;0.50;0.30;;;22.50;76.50;;;;;;5102548;28;20032;-36
2021/10/08 12:42:40;;;;;;;0.40;0.30;;;22.40;76.40;;;;;;5103658;28;20052;-36
2021/10/08 12:45:33;;;;;;;0.70;0.30;;;22.50;76.50;;;;;;5104048;28;20051;-36
2021/10/08 12:48:00;;;;;;;0.22;0.22;;;22.40;76.50;;;;;;5103677;28;20050;-36
2021/10/08 12:50:26;;;;;;;0.85;0.30;;;22.40;76.50;;;;;;5102205;28;20047;-36
2021/10/08 12:52:54;;;;;;;0.30;0.30;;;22.40;76.60;;;;;;5084079;28;20025;-36
2021/10/08 12:55:31;;;;;;;1.75;0.25;;;22.50;77.30;;;;;;5083345;28;20032;-36